createdAt,value
2016-05-12T00:00:42.495Z,54.22
2016-05-12T00:01:42.372Z,53.64
2016-05-12T00:02:42.578Z,53.55
2016-05-12T00:03:42.644Z,54.12
2016-05-12T00:04:42.661Z,53.93
2016-05-12T00:05:42.711Z,54.99
2016-05-12T00:06:42.807Z,54.6
2016-05-12T00:07:42.794Z,54.99
2016-05-12T00:08:42.829Z,55.46
2016-05-12T00:09:42.877Z,55.36
2016-05-12T00:10:42.991Z,55.36
2016-05-12T00:11:42.962Z,55.36
2016-05-12T00:12:42.996Z,56.04
2016-05-12T00:13:43.061Z,56.32
2016-05-12T00:14:43.079Z,55.94
2016-05-12T00:15:42.973Z,55.94
2016-05-12T00:16:43.006Z,56.23
2016-05-12T00:17:43.243Z,56.42
2016-05-12T00:18:43.262Z,56.42
2016-05-12T00:19:43.280Z,56.42
2016-05-12T00:20:43.329Z,56.32
2016-05-12T00:21:43.239Z,56.04
2016-05-12T00:22:43.412Z,56.13
2016-05-12T00:23:43.291Z,56.42
2016-05-12T00:24:43.544Z,56.23
2016-05-12T00:25:43.421Z,56.42
2016-05-12T00:26:43.580Z,56.42
2016-05-12T00:27:43.645Z,56.13
2016-05-12T00:28:43.507Z,56.52
2016-05-12T00:29:43.556Z,56.9
2016-05-12T00:30:43.747Z,56.13
2016-05-12T00:31:43.812Z,56.23
2016-05-12T00:32:43.847Z,56.1
2016-05-12T00:33:43.880Z,56.3
2016-05-12T00:34:43.914Z,56.42
2016-05-12T00:35:43.995Z,56.42
2016-05-12T00:36:43.997Z,56.39
2016-05-12T00:37:44.047Z,55.73
2016-05-12T00:38:44.081Z,55.91
2016-05-12T00:39:44.131Z,55.82
2016-05-12T00:40:44.180Z,55.91
2016-05-12T00:41:44.214Z,56.3
2016-05-12T00:42:44.310Z,56.68
2016-05-12T00:43:44.282Z,58.02
2016-05-12T00:44:44.331Z,58.79
2016-05-12T00:45:44.412Z,59.08
2016-05-12T00:46:44.447Z,59.65
2016-05-12T00:47:44.324Z,60.41
2016-05-12T00:48:44.499Z,60
2016-05-12T00:49:44.548Z,60.29
2016-05-12T00:50:44.582Z,60.19
2016-05-12T00:51:44.631Z,60.38
2016-05-12T00:52:44.712Z,60.19
2016-05-12T00:53:44.871Z,60
2016-05-12T00:54:44.749Z,60.29
2016-05-12T00:55:44.798Z,60.58
2016-05-12T00:56:44.895Z,61.05
2016-05-12T00:57:44.898Z,61.12
2016-05-12T00:58:44.995Z,61.12
2016-05-12T00:59:44.966Z,61.31
2016-05-12T01:00:45.046Z,61.41
2016-05-12T01:01:45.503Z,62.46
2016-05-12T01:02:45.084Z,62.27
2016-05-12T01:03:45.211Z,62.27
2016-05-12T01:04:46.416Z,62.27
2016-05-12T01:05:45.200Z,61.88
2016-05-12T01:06:45.250Z,62.17
2016-05-12T01:07:45.300Z,62.27
2016-05-12T01:08:45.366Z,62.46
2016-05-12T01:09:45.368Z,62.08
2016-05-12T01:10:45.417Z,62.94
2016-05-12T01:11:45.451Z,63.8
2016-05-12T01:12:45.485Z,62.74
2016-05-12T01:13:45.535Z,63.13
2016-05-12T01:14:45.678Z,62.94
2016-05-12T01:15:45.681Z,63.51
2016-05-12T01:16:45.668Z,63.7
2016-05-12T01:17:45.732Z,63.23
2016-05-12T01:18:45.595Z,63.8
2016-05-12T01:19:45.785Z,63.89
2016-05-12T01:20:45.818Z,63.8
2016-05-12T01:21:45.854Z,63.7
2016-05-12T01:22:45.762Z,63.89
2016-05-12T01:23:45.937Z,63.99
2016-05-12T01:24:45.987Z,63.8
2016-05-12T01:25:45.911Z,63.8
2016-05-12T01:26:46.085Z,63.23
2016-05-12T01:27:46.119Z,63.51
2016-05-12T01:28:46.153Z,63.13
2016-05-12T01:29:46.187Z,63.6
2016-05-12T01:30:46.237Z,62.94
2016-05-12T01:31:46.130Z,63.7
2016-05-12T01:32:46.320Z,62.94
2016-05-12T01:33:46.400Z,62.84
2016-05-12T01:34:46.403Z,62.74
2016-05-12T01:35:46.438Z,63.51
2016-05-12T01:36:46.487Z,62.94
2016-05-12T01:37:46.772Z,63.23
2016-05-12T01:38:46.571Z,62.94
2016-05-12T01:39:46.605Z,63.23
2016-05-12T01:40:46.701Z,62.84
2016-05-12T01:41:46.564Z,62.84
2016-05-12T01:42:46.722Z,62.94
2016-05-12T01:43:46.771Z,62.65
2016-05-12T01:44:46.821Z,62.46
2016-05-12T01:45:46.855Z,63.6
2016-05-12T01:46:46.889Z,63.42
2016-05-12T01:47:46.938Z,63.13
2016-05-12T01:48:46.973Z,63.99
2016-05-12T01:49:47.007Z,62.65
2016-05-12T01:50:47.056Z,62.84
2016-05-12T01:51:47.152Z,63.23
2016-05-12T01:52:47.140Z,63.42
2016-05-12T01:53:47.032Z,63.03
2016-05-12T01:54:47.223Z,63.6
2016-05-12T01:55:47.288Z,63.51
2016-05-12T01:56:47.307Z,63.51
2016-05-12T01:57:47.340Z,63.13
2016-05-12T01:58:47.390Z,63.13
2016-05-12T01:59:47.440Z,63.8
2016-05-12T02:00:47.473Z,63.32
2016-05-12T02:01:47.819Z,63.8
2016-05-12T02:02:47.556Z,64.09
2016-05-12T02:03:47.451Z,63.99
2016-05-12T02:04:47.625Z,63.99
2016-05-12T02:05:47.689Z,63.89
2016-05-12T02:06:47.739Z,64.28
2016-05-12T02:07:47.758Z,64.47
2016-05-12T02:08:47.808Z,64.37
2016-05-12T02:09:47.825Z,64.47
2016-05-12T02:10:47.891Z,64.28
2016-05-12T02:11:47.910Z,64.37
2016-05-12T02:12:47.958Z,63.99
2016-05-12T02:13:47.993Z,63.8
2016-05-12T02:14:48.058Z,63.76
2016-05-12T02:15:48.076Z,64.05
2016-05-12T02:16:47.986Z,63.57
2016-05-12T02:17:48.176Z,63
2016-05-12T02:18:48.209Z,63.29
2016-05-12T02:19:48.260Z,63.57
2016-05-12T02:20:48.293Z,63.29
2016-05-12T02:21:48.343Z,63.39
2016-05-12T02:22:48.376Z,63.1
2016-05-12T02:23:48.254Z,63.57
2016-05-12T02:24:48.460Z,63.39
2016-05-12T02:25:48.494Z,62.71
2016-05-12T02:26:48.543Z,62.62
2016-05-12T02:27:48.593Z,62.9
2016-05-12T02:28:48.642Z,63
2016-05-12T02:29:48.661Z,62.71
2016-05-12T02:30:48.695Z,62.62
2016-05-12T02:31:48.620Z,63.19
2016-05-12T02:32:48.779Z,62.81
2016-05-12T02:33:48.812Z,62.43
2016-05-12T02:34:48.861Z,62.62
2016-05-12T02:35:48.943Z,62.81
2016-05-12T02:36:48.945Z,63.1
2016-05-12T02:37:48.979Z,63
2016-05-12T02:38:49.029Z,63.19
2016-05-12T02:39:49.110Z,63
2016-05-12T02:40:49.113Z,62.43
2016-05-12T02:41:49.147Z,63.76
2016-05-12T02:42:49.211Z,62.9
2016-05-12T02:43:49.246Z,63
2016-05-12T02:44:49.263Z,63.19
2016-05-12T02:45:49.360Z,63.19
2016-05-12T02:46:49.363Z,63
2016-05-12T02:47:49.397Z,63
2016-05-12T02:48:49.430Z,63.29
2016-05-12T02:49:49.512Z,63.29
2016-05-12T02:50:49.515Z,63.29
2016-05-12T02:51:49.549Z,63.39
2016-05-12T02:52:49.598Z,62.9
2016-05-12T02:53:49.679Z,63.39
2016-05-12T02:54:49.696Z,63.39
2016-05-12T02:55:49.778Z,63.57
2016-05-12T02:56:49.608Z,62.62
2016-05-12T02:57:49.798Z,63
2016-05-12T02:58:49.693Z,63
2016-05-12T02:59:49.882Z,63.54
2016-05-12T03:00:49.963Z,63.45
2016-05-12T03:01:50.090Z,63.39
2016-05-12T03:02:50.000Z,63.39
2016-05-12T03:03:50.049Z,63.29
2016-05-12T03:04:50.115Z,63.39
2016-05-12T03:05:50.133Z,63.48
2016-05-12T03:06:50.167Z,63.16
2016-05-12T03:07:50.231Z,63.83
2016-05-12T03:08:50.250Z,63.73
2016-05-12T03:09:50.284Z,63.83
2016-05-12T03:10:50.350Z,64.5
2016-05-12T03:11:50.211Z,64.5
2016-05-12T03:12:50.417Z,64.12
2016-05-12T03:13:50.295Z,64.22
2016-05-12T03:14:50.532Z,64.69
2016-05-12T03:15:50.535Z,64.59
2016-05-12T03:16:50.443Z,64.98
2016-05-12T03:17:50.619Z,64.98
2016-05-12T03:18:50.683Z,65.64
2016-05-12T03:19:50.702Z,66.03
2016-05-12T03:20:50.736Z,66.03
2016-05-12T03:21:50.644Z,65.93
2016-05-12T03:22:50.818Z,65.74
2016-05-12T03:23:50.712Z,65.84
2016-05-12T03:24:50.902Z,65.55
2016-05-12T03:25:50.984Z,64.98
2016-05-12T03:26:50.986Z,65.26
2016-05-12T03:27:51.020Z,65.07
2016-05-12T03:28:51.070Z,65.17
2016-05-12T03:29:50.962Z,64.98
2016-05-12T03:30:51.153Z,65.07
2016-05-12T03:31:51.031Z,65.26
2016-05-12T03:32:51.065Z,65.07
2016-05-12T03:33:51.270Z,65.26
2016-05-12T03:34:51.148Z,64.69
2016-05-12T03:35:51.181Z,64.78
2016-05-12T03:36:51.263Z,64.98
2016-05-12T03:37:51.437Z,65.17
2016-05-12T03:38:51.472Z,65.45
2016-05-12T03:39:51.553Z,65.17
2016-05-12T03:40:51.399Z,64.88
2016-05-12T03:41:51.588Z,64.88
2016-05-12T03:42:51.638Z,64.69
2016-05-12T03:43:51.672Z,64.69
2016-05-12T03:44:51.722Z,65.07
2016-05-12T03:45:51.755Z,65.55
2016-05-12T03:46:51.821Z,65.07
2016-05-12T03:47:51.839Z,65.36
2016-05-12T03:48:51.874Z,65.07
2016-05-12T03:49:51.923Z,65.64
2016-05-12T03:50:51.972Z,65.17
2016-05-12T03:51:51.991Z,65.45
2016-05-12T03:52:52.057Z,65.07
2016-05-12T03:53:52.105Z,65.74
2016-05-12T03:54:52.124Z,65.84
2016-05-12T03:55:52.157Z,66.13
2016-05-12T03:56:52.035Z,66.13
2016-05-12T03:57:52.273Z,65.84
2016-05-12T03:58:52.291Z,65.9
2016-05-12T03:59:52.326Z,66.19
2016-05-12T04:00:52.406Z,65.8
2016-05-12T04:01:52.409Z,66
2016-05-12T04:02:52.442Z,66.56
2016-05-12T04:03:52.492Z,65.9
2016-05-12T04:04:52.526Z,66.41
2016-05-12T04:05:52.638Z,66.13
2016-05-12T04:06:52.672Z,66.47
2016-05-12T04:07:52.643Z,66.41
2016-05-12T04:08:52.692Z,66.47
2016-05-12T04:09:52.570Z,65.93
2016-05-12T04:10:52.605Z,66.09
2016-05-12T04:11:52.811Z,66.5
2016-05-12T04:12:52.860Z,66.13
2016-05-12T04:13:52.878Z,66.13
2016-05-12T04:14:52.943Z,66.03
2016-05-12T04:15:52.805Z,66.03
2016-05-12T04:16:52.855Z,66.03
2016-05-12T04:17:53.060Z,65.84
2016-05-12T04:18:53.095Z,65.93
2016-05-12T04:19:53.144Z,66.03
2016-05-12T04:20:53.178Z,66.03
2016-05-12T04:21:53.243Z,66.03
2016-05-12T04:22:53.262Z,66.5
2016-05-12T04:23:53.295Z,66.31
2016-05-12T04:24:53.329Z,66.6
2016-05-12T04:25:53.395Z,66.13
2016-05-12T04:26:53.413Z,66.5
2016-05-12T04:27:53.462Z,66.5
2016-05-12T04:28:53.496Z,66.79
2016-05-12T04:29:53.562Z,66.13
2016-05-12T04:30:53.580Z,66.79
2016-05-12T04:31:53.629Z,66.31
2016-05-12T04:32:53.664Z,66.89
2016-05-12T04:33:53.698Z,66.83
2016-05-12T04:34:53.731Z,67.11
2016-05-12T04:35:53.781Z,66.73
2016-05-12T04:36:53.814Z,66.63
2016-05-12T04:37:53.865Z,67.02
2016-05-12T04:38:53.899Z,66.83
2016-05-12T04:39:53.948Z,67.11
2016-05-12T04:40:53.997Z,66.92
2016-05-12T04:41:54.031Z,66.44
2016-05-12T04:42:54.080Z,66.63
2016-05-12T04:43:53.959Z,66.44
2016-05-12T04:44:54.150Z,66.54
2016-05-12T04:45:54.183Z,66.44
2016-05-12T04:46:54.233Z,66.54
2016-05-12T04:47:54.297Z,66.16
2016-05-12T04:48:54.316Z,66.35
2016-05-12T04:49:54.193Z,66.25
2016-05-12T04:50:54.416Z,66.28
2016-05-12T04:51:54.433Z,66.25
2016-05-12T04:52:54.468Z,66.38
2016-05-12T04:53:54.501Z,65.61
2016-05-12T04:54:54.582Z,65.14
2016-05-12T04:55:54.585Z,65.23
2016-05-12T04:56:54.635Z,65.52
2016-05-12T04:57:54.715Z,65.33
2016-05-12T04:58:54.984Z,64.75
2016-05-12T04:59:55.033Z,64.75
2016-05-12T05:00:54.957Z,64.56
2016-05-12T05:01:54.695Z,64.66
2016-05-12T05:02:54.884Z,64.75
2016-05-12T05:03:54.763Z,64.37
2016-05-12T05:04:54.968Z,64.47
2016-05-12T05:05:55.003Z,64.18
2016-05-12T05:06:54.881Z,64.28
2016-05-12T05:07:55.070Z,64.56
2016-05-12T05:08:55.167Z,64.56
2016-05-12T05:09:55.044Z,64.37
2016-05-12T05:10:55.203Z,64.28
2016-05-12T05:11:55.315Z,63.8
2016-05-12T05:12:55.318Z,63.8
2016-05-12T05:13:55.320Z,63.6
2016-05-12T05:14:55.355Z,63.23
2016-05-12T05:15:55.419Z,62.94
2016-05-12T05:16:55.469Z,63.32
2016-05-12T05:17:56.347Z,62.84
2016-05-12T05:18:55.553Z,62.55
2016-05-12T05:19:55.571Z,63.13
2016-05-12T05:20:55.761Z,63.13
2016-05-12T05:21:55.702Z,62.65
2016-05-12T05:22:55.704Z,61.88
2016-05-12T05:23:55.739Z,62.01
2016-05-12T05:24:55.788Z,61.82
2016-05-12T05:25:55.900Z,61.82
2016-05-12T05:26:55.887Z,61.22
2016-05-12T05:27:56.218Z,61.31
2016-05-12T05:28:55.954Z,61.79
2016-05-12T05:29:55.988Z,61.51
2016-05-12T05:30:56.351Z,62.27
2016-05-12T05:31:56.166Z,62.17
2016-05-12T05:32:56.106Z,61.91
2016-05-12T05:33:55.999Z,62.01
2016-05-12T05:34:56.206Z,61.63
2016-05-12T05:35:56.239Z,61.72
2016-05-12T05:36:56.273Z,61.63
2016-05-12T05:37:56.306Z,61.15
2016-05-12T05:38:56.357Z,61.54
2016-05-12T05:39:56.235Z,61.54
2016-05-12T05:40:56.284Z,61.72
2016-05-12T05:41:56.537Z,61.44
2016-05-12T05:42:56.523Z,61.25
2016-05-12T05:43:56.557Z,61.54
2016-05-12T05:44:56.592Z,61.25
2016-05-12T05:45:56.656Z,61.54
2016-05-12T05:46:56.847Z,61.28
2016-05-12T05:47:56.912Z,60.77
2016-05-12T05:48:56.868Z,61.15
2016-05-12T05:49:56.824Z,60.89
2016-05-12T05:50:57.124Z,61.08
2016-05-12T05:51:56.891Z,60.99
2016-05-12T05:52:57.160Z,60.32
2016-05-12T05:53:57.427Z,60.13
2016-05-12T05:54:57.009Z,60.13
2016-05-12T05:55:57.075Z,60.22
2016-05-12T05:56:57.124Z,60.61
2016-05-12T05:57:57.157Z,60.32
2016-05-12T05:58:57.176Z,59.75
2016-05-12T05:59:57.866Z,59.84
2016-05-12T06:00:57.338Z,59.75
2016-05-12T06:01:57.559Z,60.22
2016-05-12T06:02:57.359Z,60.13
2016-05-12T06:03:57.518Z,59.94
2016-05-12T06:04:57.599Z,59.84
2016-05-12T06:05:57.335Z,59.55
2016-05-12T06:06:57.542Z,59.11
2016-05-12T06:07:57.544Z,58.4
2016-05-12T06:08:57.593Z,58.88
2016-05-12T06:09:57.986Z,58.44
2016-05-12T06:10:59.662Z,58.53
2016-05-12T06:11:58.430Z,58.02
2016-05-12T06:12:58.073Z,58.12
2016-05-12T06:13:58.388Z,58.05
2016-05-12T06:14:58.953Z,57.95
2016-05-12T06:15:57.894Z,57.92
2016-05-12T06:16:58.006Z,58.34
2016-05-12T06:17:57.977Z,58.62
2016-05-12T06:18:57.855Z,58.24
2016-05-12T06:19:58.264Z,58.34
2016-05-12T06:20:58.141Z,58.62
2016-05-12T06:21:58.128Z,58.24
2016-05-12T06:22:58.397Z,58.62
2016-05-12T06:23:58.212Z,57.95
2016-05-12T06:24:58.261Z,58.15
2016-05-12T06:25:58.296Z,57.76
2016-05-12T06:26:58.377Z,58.84
2016-05-12T06:27:58.379Z,58.65
2016-05-12T06:28:58.429Z,58.37
2016-05-12T06:29:58.479Z,58.27
2016-05-12T06:30:58.590Z,57.89
2016-05-12T06:31:58.937Z,58.27
2016-05-12T06:32:59.767Z,58.08
2016-05-12T06:33:59.474Z,57.98
2016-05-12T06:35:00.445Z,57.7
2016-05-12T06:35:59.728Z,57.79
2016-05-12T06:36:59.857Z,58.17
2016-05-12T06:37:59.234Z,58.17
2016-05-12T06:38:59.674Z,58.11
2016-05-12T06:39:59.865Z,58.37
2016-05-12T06:40:59.493Z,57.92
2016-05-12T06:42:00.401Z,57.53
2016-05-12T06:42:59.842Z,58.11
2016-05-12T06:43:59.672Z,58.2
2016-05-12T06:44:59.784Z,58.01
2016-05-12T06:46:00.115Z,58.39
2016-05-12T06:47:00.367Z,58.01
2016-05-12T06:47:59.980Z,58.39
2016-05-12T06:49:00.638Z,58.01
2016-05-12T06:49:59.637Z,57.63
2016-05-12T06:50:59.714Z,58.3
2016-05-12T06:51:59.837Z,57.63
2016-05-12T06:52:59.446Z,57.63
2016-05-12T06:53:59.695Z,57.53
2016-05-12T06:55:00.572Z,57.37
2016-05-12T06:55:59.904Z,57.56
2016-05-12T06:57:00.187Z,57.75
2016-05-12T06:58:00.345Z,57.75
2016-05-12T06:59:00.426Z,57.65
2016-05-12T07:00:00.512Z,57.56
2016-05-12T07:01:00.130Z,57.37
2016-05-12T07:01:59.434Z,57.65
2016-05-12T07:03:00.318Z,57.46
2016-05-12T07:04:00.091Z,57.65
2016-05-12T07:05:00.268Z,57.56
2016-05-12T07:06:00.148Z,57.46
2016-05-12T07:07:01.590Z,57.18
2016-05-12T07:08:00.547Z,57.37
2016-05-12T07:09:00.755Z,57.21
2016-05-12T07:10:01.072Z,57.56
2016-05-12T07:11:00.528Z,57.21
2016-05-12T07:12:01.031Z,57.11
2016-05-12T07:13:00.721Z,57.01
2016-05-12T07:14:00.647Z,57.01
2016-05-12T07:15:00.697Z,57.01
2016-05-12T07:16:01.591Z,56.73
2016-05-12T07:17:01.141Z,56.15
2016-05-12T07:18:00.862Z,56.34
2016-05-12T07:19:01.506Z,56.34
2016-05-12T07:20:01.697Z,56.44
2016-05-12T07:21:01.089Z,56.34
2016-05-12T07:22:01.123Z,56.34
2016-05-12T07:23:01.080Z,56.44
2016-05-12T07:24:00.958Z,56.05
2016-05-12T07:25:01.226Z,56.27
2016-05-12T07:26:01.181Z,56.76
2016-05-12T07:27:01.480Z,56.37
2016-05-12T07:28:01.344Z,56.18
2016-05-12T07:29:01.486Z,55.99
2016-05-12T07:30:02.239Z,55.79
2016-05-12T07:31:03.008Z,55.79
2016-05-12T07:32:01.494Z,55.6
2016-05-12T07:33:01.482Z,55.79
2016-05-12T07:34:01.625Z,55.69
2016-05-12T07:35:01.549Z,56.01
2016-05-12T07:36:01.599Z,55.69
2016-05-12T07:37:01.633Z,55.82
2016-05-12T07:38:02.260Z,55.34
2016-05-12T07:39:01.716Z,54.96
2016-05-12T07:40:01.782Z,55.24
2016-05-12T07:41:01.644Z,55.73
2016-05-12T07:42:01.849Z,55.73
2016-05-12T07:43:02.555Z,55.91
2016-05-12T07:44:11.714Z,55.63
2016-05-12T07:45:03.561Z,56.33
2016-05-12T07:46:03.298Z,56.88
2016-05-12T07:47:03.363Z,57.48
2016-05-12T07:48:03.256Z,57.87
2016-05-12T07:49:02.790Z,57.87
2016-05-12T07:50:03.528Z,57.68
2016-05-12T07:51:03.326Z,57.58
2016-05-12T07:52:03.815Z,57.48
2016-05-12T07:53:06.895Z,57.39
2016-05-12T07:54:04.539Z,57.68
2016-05-12T07:55:03.806Z,57.9
2016-05-12T07:56:03.231Z,57.99
2016-05-12T07:57:02.531Z,57.9
2016-05-12T07:58:03.205Z,57.7
2016-05-12T07:59:02.661Z,58.47
2016-05-12T08:00:05.569Z,58.18
2016-05-12T08:01:03.791Z,58.18
2016-05-12T08:02:03.685Z,57.06
2016-05-12T08:03:04.234Z,57.35
2016-05-12T08:04:08.580Z,56.67
2016-05-12T08:05:05.193Z,56.22
2016-05-12T08:06:05.883Z,56.22
2016-05-12T08:07:05.449Z,56.22
2016-05-12T08:08:04.904Z,56.12
2016-05-12T08:09:06.265Z,55.93
2016-05-12T08:10:05.144Z,56.03
2016-05-12T08:11:05.397Z,55.74
2016-05-12T08:12:07.743Z,55.74
2016-05-12T08:13:06.543Z,55.35
2016-05-12T08:14:07.123Z,54.87
2016-05-12T08:15:05.782Z,54.2
2016-05-12T08:16:04.894Z,53.91
2016-05-12T08:17:04.928Z,54.2
2016-05-12T08:18:05.135Z,54.39
2016-05-12T08:19:05.090Z,54.39
2016-05-12T08:20:03.514Z,53.81
2016-05-12T08:21:03.612Z,53.62
2016-05-12T08:22:03.567Z,53.62
2016-05-12T08:23:03.881Z,53.33
2016-05-12T08:24:03.665Z,53.23
2016-05-12T08:25:03.700Z,53.23
2016-05-12T08:26:03.702Z,52.18
2016-05-12T08:27:03.642Z,52.08
2016-05-12T08:28:03.880Z,51.89
2016-05-12T08:29:03.882Z,51.7
2016-05-12T08:30:03.931Z,51.92
2016-05-12T08:31:05.591Z,51.79
2016-05-12T08:32:04.469Z,51.92
2016-05-12T08:33:04.065Z,51.72
2016-05-12T08:34:07.553Z,51.14
2016-05-12T08:35:06.242Z,51.21
2016-05-12T08:36:07.745Z,50.57
2016-05-12T08:37:10.716Z,51.14
2016-05-12T08:38:09.250Z,49.32
2016-05-12T08:39:09.894Z,49.32
2016-05-12T08:40:09.662Z,48.54
2016-05-12T08:41:09.399Z,48.06
2016-05-12T08:42:09.370Z,47.58
2016-05-12T08:43:09.279Z,47.67
2016-05-12T08:44:08.063Z,47.58
2016-05-12T08:45:09.613Z,47
2016-05-12T08:46:07.381Z,46.52
2016-05-12T08:47:07.212Z,46.14
2016-05-12T08:48:07.605Z,45.27
2016-05-12T08:49:07.389Z,45
2016-05-12T08:50:08.095Z,45
2016-05-12T08:51:07.785Z,44.62
2016-05-12T08:52:08.959Z,43.94
2016-05-12T08:53:08.587Z,43.85
2016-05-12T08:54:10.606Z,43.85
2016-05-12T08:55:10.592Z,43.27
2016-05-12T08:56:11.034Z,43.17
2016-05-12T08:57:12.208Z,43.19
2016-05-12T08:58:11.647Z,42.61
2016-05-12T08:59:10.167Z,42.9
2016-05-12T09:00:10.044Z,42.52
2016-05-12T09:01:08.686Z,42.71
2016-05-12T09:02:09.425Z,42.42
2016-05-12T09:03:07.895Z,42.42
2016-05-12T09:04:08.023Z,42.13
2016-05-12T09:05:05.307Z,42.13
2016-05-12T09:06:06.403Z,41.96
2016-05-12T09:07:05.594Z,41.84
2016-05-12T09:08:08.049Z,41.38
2016-05-12T09:09:05.646Z,40.99
2016-05-12T09:10:05.696Z,41.77
2016-05-12T09:11:05.777Z,41.96
2016-05-12T09:12:05.841Z,40.99
2016-05-12T09:13:05.719Z,41.28
2016-05-12T09:14:06.065Z,41.19
2016-05-12T09:15:06.444Z,41.09
2016-05-12T09:16:05.977Z,41.11
2016-05-12T09:17:05.996Z,41.02
2016-05-12T09:18:06.061Z,40.63
2016-05-12T09:19:06.142Z,40.53
2016-05-12T09:20:05.988Z,40.72
2016-05-12T09:21:06.194Z,40.72
2016-05-12T09:22:06.071Z,40.63
2016-05-12T09:23:06.293Z,40.26
2016-05-12T09:24:06.326Z,40.26
2016-05-12T09:25:06.361Z,40.26
2016-05-12T09:26:08.957Z,40.26
2016-05-12T09:27:06.459Z,40.65
2016-05-12T09:28:06.494Z,40.86
2016-05-12T09:29:06.669Z,39.7
2016-05-12T09:30:06.640Z,39.41
2016-05-12T09:31:07.549Z,38.74
2016-05-12T09:32:07.052Z,38.74
2016-05-12T09:33:08.414Z,38.16
2016-05-12T09:34:06.791Z,38.45
2016-05-12T09:35:06.856Z,37.87
2016-05-12T09:36:07.000Z,37.77
2016-05-12T09:37:07.050Z,37.67
2016-05-12T09:38:07.239Z,37.58
2016-05-12T09:39:07.055Z,37.29
2016-05-12T09:40:07.074Z,37.3
2016-05-12T09:41:09.294Z,36.24
2016-05-12T09:42:07.125Z,36.24
2016-05-12T09:43:07.190Z,36.36
2016-05-12T09:44:07.224Z,36.07
2016-05-12T09:45:07.305Z,36.07
2016-05-12T09:46:07.323Z,36.26
2016-05-12T09:47:07.389Z,35.89
2016-05-12T09:48:07.407Z,35.5
2016-05-12T09:49:07.566Z,35.31
2016-05-12T09:50:07.710Z,35.6
2016-05-12T09:51:07.728Z,35.6
2016-05-12T09:52:07.606Z,35.21
2016-05-12T09:53:07.795Z,35.12
2016-05-12T09:54:07.970Z,34.84
2016-05-12T09:55:07.739Z,34.75
2016-05-12T09:56:07.804Z,34.36
2016-05-12T09:57:07.837Z,34.36
2016-05-12T09:58:07.934Z,34.65
2016-05-12T09:59:07.920Z,34.36
2016-05-12T10:00:07.814Z,34.57
2016-05-12T10:01:08.067Z,34.09
2016-05-12T10:02:08.069Z,33.6
2016-05-12T10:03:08.104Z,33.51
2016-05-12T10:04:08.232Z,33.6
2016-05-12T10:05:08.047Z,33.33
2016-05-12T10:06:08.253Z,33.52
2016-05-12T10:07:08.302Z,33.14
2016-05-12T10:08:08.383Z,32.86
2016-05-12T10:09:08.402Z,32.96
2016-05-12T10:10:09.841Z,32.67
2016-05-12T10:11:09.094Z,32.78
2016-05-12T10:12:08.534Z,32.59
2016-05-12T10:13:08.724Z,32.39
2016-05-12T10:14:08.665Z,32.39
2016-05-12T10:15:08.963Z,32
2016-05-12T10:16:08.982Z,31.63
2016-05-12T10:17:08.813Z,30.57
2016-05-12T10:18:08.863Z,30.47
2016-05-12T10:19:08.882Z,29.88
2016-05-12T10:20:09.071Z,29.98
2016-05-12T10:21:11.246Z,29.6
2016-05-12T10:22:09.420Z,29.98
2016-05-12T10:23:09.096Z,30.08
2016-05-12T10:24:09.129Z,29.98
2016-05-12T10:25:09.273Z,29.41
2016-05-12T10:26:09.275Z,29.41
2016-05-12T10:27:09.293Z,29.22
2016-05-12T10:28:09.374Z,28.75
2016-05-12T10:29:09.392Z,28.47
2016-05-12T10:30:09.301Z,29.05
2016-05-12T10:31:09.335Z,28.29
2016-05-12T10:32:09.556Z,26.94
2016-05-12T10:33:09.654Z,25.79
2016-05-12T10:34:09.827Z,25.03
2016-05-12T10:35:09.564Z,24.07
2016-05-12T10:36:09.786Z,23.69
2016-05-12T10:37:09.867Z,22.63
2016-05-12T10:38:09.917Z,21.58
2016-05-12T10:39:10.185Z,20.93
2016-05-12T10:40:10.188Z,19.98
2016-05-12T10:41:10.205Z,18.82
2016-05-12T10:42:10.115Z,17.36
2016-05-12T10:43:10.196Z,17
2016-05-12T10:44:10.261Z,15.83
2016-05-12T10:45:10.279Z,14.47
2016-05-12T10:46:10.344Z,14.17
2016-05-12T10:47:10.410Z,14.17
2016-05-12T10:48:10.475Z,14.28
2016-05-12T10:49:10.368Z,13.79
2016-05-12T10:50:10.698Z,13.01
2016-05-12T10:51:10.655Z,12.14
2016-05-12T10:52:10.689Z,10.97
2016-05-12T10:53:10.848Z,10.78
2016-05-12T10:54:11.054Z,10.38
2016-05-12T10:55:10.790Z,9.89
2016-05-12T10:56:10.918Z,9.99
2016-05-12T10:57:10.984Z,9.88
2016-05-12T10:58:11.112Z,9.89
2016-05-12T10:59:11.082Z,10.49
2016-05-12T11:00:11.147Z,10.28
2016-05-12T11:01:11.212Z,9.88
2016-05-12T11:02:11.310Z,9.89
2016-05-12T11:03:11.311Z,9.7
2016-05-12T11:04:11.408Z,9.89
2016-05-12T11:05:11.442Z,9.59
2016-05-12T11:06:11.523Z,9.88
2016-05-12T11:07:11.558Z,9.97
2016-05-12T11:08:11.607Z,9.88
2016-05-12T11:09:11.655Z,9.68
2016-05-12T11:10:11.737Z,9.58
2016-05-12T11:11:11.772Z,9.88
2016-05-12T11:12:11.836Z,10.16
2016-05-12T11:13:11.949Z,10.64
2016-05-12T11:14:11.951Z,11.62
2016-05-12T11:15:12.141Z,11.53
2016-05-12T11:16:12.066Z,11.53
2016-05-12T11:17:12.880Z,11.44
2016-05-12T11:18:12.180Z,10.75
2016-05-12T11:19:12.246Z,10.75
2016-05-12T11:20:12.310Z,11.54
2016-05-12T11:21:12.345Z,11.23
2016-05-12T11:22:12.676Z,11.72
2016-05-12T11:23:12.490Z,11.04
2016-05-12T11:24:12.431Z,11.16
2016-05-12T11:25:12.590Z,10.38
2016-05-12T11:26:12.718Z,9.8
2016-05-12T11:27:12.954Z,9.12
2016-05-12T11:28:12.832Z,8.93
2016-05-12T11:29:12.992Z,8.83
2016-05-12T11:30:12.916Z,8.63
2016-05-12T11:31:13.137Z,7.75
2016-05-12T11:32:13.249Z,8.04
2016-05-12T11:33:13.159Z,7.94
2016-05-12T11:34:12.958Z,7.94
2016-05-12T11:35:13.303Z,8.83
2016-05-12T11:36:13.714Z,8.23
2016-05-12T11:37:13.981Z,8.62
2016-05-12T11:38:13.203Z,8.62
2016-05-12T11:39:13.252Z,8.43
2016-05-12T11:40:13.709Z,8.73
2016-05-12T11:41:13.899Z,7.64
2016-05-12T11:42:13.432Z,7.45
2016-05-12T11:43:14.686Z,6.86
2016-05-12T11:44:13.813Z,6.86
2016-05-12T11:45:13.753Z,6.77
2016-05-12T11:46:14.350Z,6.47
2016-05-12T11:47:13.883Z,6.67
2016-05-12T11:48:13.839Z,6.57
2016-05-12T11:49:14.013Z,6.65
2016-05-12T11:50:14.064Z,7.34
2016-05-12T11:51:14.269Z,7.82
2016-05-12T11:52:14.037Z,8.7
2016-05-12T11:53:14.384Z,9.38
2016-05-12T11:54:15.043Z,9.19
2016-05-12T11:55:14.483Z,9.19
2016-05-12T11:56:14.454Z,9.19
2016-05-12T11:57:14.488Z,8.71
2016-05-12T11:58:14.554Z,8.61
2016-05-12T11:59:14.603Z,8.71
2016-05-12T12:00:14.653Z,9.3
2016-05-12T12:01:14.718Z,9
2016-05-12T12:02:14.612Z,9
2016-05-12T12:03:15.584Z,9
2016-05-12T12:04:14.945Z,8.81
2016-05-12T12:05:15.009Z,8.52
2016-05-12T12:06:15.044Z,8.81
2016-05-12T12:07:15.094Z,8.61
2016-05-12T12:08:15.158Z,9
2016-05-12T12:09:15.193Z,8.9
2016-05-12T12:10:15.273Z,9.38
2016-05-12T12:11:15.494Z,9.77
2016-05-12T12:12:15.419Z,9.97
2016-05-12T12:13:15.406Z,9.77
2016-05-12T12:14:15.471Z,10.54
2016-05-12T12:15:15.755Z,11.03
2016-05-12T12:16:15.586Z,11.41
2016-05-12T12:17:15.636Z,11.5
2016-05-12T12:18:15.717Z,11.98
2016-05-12T12:19:15.735Z,12.86
2016-05-12T12:20:15.738Z,13.24
2016-05-12T12:21:16.646Z,13.82
2016-05-12T12:22:16.072Z,14.59
2016-05-12T12:23:15.996Z,14.48
2016-05-12T12:24:16.015Z,15.06
2016-05-12T12:25:16.063Z,15.35
2016-05-12T12:26:16.129Z,15.44
2016-05-12T12:27:16.710Z,15.83
2016-05-12T12:28:16.353Z,15.92
2016-05-12T12:29:16.293Z,16.02
2016-05-12T12:30:16.311Z,15.83
2016-05-12T12:31:16.376Z,15.84
2016-05-12T12:32:16.490Z,14.97
2016-05-12T12:33:16.492Z,15.08
2016-05-12T12:34:16.525Z,14.97
2016-05-12T12:35:16.575Z,15.37
2016-05-12T12:36:16.797Z,15.17
2016-05-12T12:37:16.706Z,15.27
2016-05-12T12:38:16.756Z,15.27
2016-05-12T12:39:17.039Z,15.45
2016-05-12T12:40:17.089Z,15.74
2016-05-12T12:41:17.107Z,15.85
2016-05-12T12:42:17.109Z,15.66
2016-05-12T12:43:17.019Z,15.37
2016-05-12T12:44:16.896Z,14.71
2016-05-12T12:45:17.117Z,14.04
2016-05-12T12:46:17.495Z,12.78
2016-05-12T12:47:17.669Z,12.01
2016-05-12T12:48:17.625Z,11.91
2016-05-12T12:49:17.362Z,12.49
2016-05-12T12:50:17.225Z,12.59
2016-05-12T12:51:17.805Z,11.99
2016-05-12T12:52:17.511Z,13.16
2016-05-12T12:53:17.530Z,12.96
2016-05-12T12:54:17.454Z,13.25
2016-05-12T12:55:18.785Z,13.26
2016-05-12T12:56:17.757Z,12.78
2016-05-12T12:57:17.760Z,12.01
2016-05-12T12:58:17.824Z,10.84
2016-05-12T12:59:17.734Z,10.55